Time;durP1;ratioP1;P1;durP2;ratioP2;P2;SDS_P1;SDS_P2;PMS_P1;PMS_P2;Temp;Humidity;BMP_temperature;BMP_pressure;BME280_temperature;BME280_humidity;BME280_pressure;Samples;Min_cycle;Max_cycle;Signal;HPM_P1;HPM_P2
2022/09/13 00:01:05;;;;;;;5.00;4.70;;;14.40;99.90;;;;;;5075192;28;20444;-75
2022/09/13 00:03:32;;;;;;;5.20;4.80;;;14.40;99.90;;;;;;5075147;28;20448;-75
2022/09/13 00:06:00;;;;;;;5.73;5.27;;;14.40;99.90;;;;;;5074971;28;20514;-75
2022/09/13 00:08:28;;;;;;;5.30;4.90;;;14.40;99.90;;;;;;5075064;28;20470;-75
2022/09/13 00:10:55;;;;;;;4.30;4.00;;;14.40;99.90;;;;;;5075186;28;20476;-75
2022/09/13 00:13:22;;;;;;;4.40;4.10;;;14.40;99.90;;;;;;5074962;28;21006;-75
2022/09/13 00:15:49;;;;;;;5.10;4.70;;;14.40;99.90;;;;;;5074447;28;20491;-75
2022/09/13 00:18:17;;;;;;;4.70;4.40;;;14.40;99.90;;;;;;5074812;28;20536;-74
2022/09/13 00:20:45;;;;;;;5.87;4.60;;;14.40;99.90;;;;;;5074779;28;20506;-75
2022/09/13 00:23:12;;;;;;;3.80;3.60;;;14.40;99.90;;;;;;5074742;28;20788;-76
2022/09/13 00:25:41;;;;;;;5.03;4.73;;;14.30;99.90;;;;;;5074557;28;20865;-75
2022/09/13 00:28:08;;;;;;;5.33;4.93;;;14.30;99.90;;;;;;5074992;28;20796;-74
2022/09/13 00:30:34;;;;;;;4.50;4.10;;;14.20;99.90;;;;;;5075627;28;20502;-74
2022/09/13 00:33:03;;;;;;;4.50;4.20;;;14.30;99.90;;;;;;5074883;28;20495;-75
2022/09/13 00:35:30;;;;;;;4.53;4.20;;;14.30;99.90;;;;;;5074845;28;20514;-75
2022/09/13 00:37:58;;;;;;;5.47;4.80;;;14.30;99.90;;;;;;5074622;28;20488;-75
2022/09/13 00:40:25;;;;;;;7.77;6.97;;;14.40;99.90;;;;;;5074902;28;20498;-75
2022/09/13 00:42:53;;;;;;;4.83;4.43;;;14.40;99.90;;;;;;5074437;28;20519;-75
2022/09/13 00:45:19;;;;;;;6.50;4.40;;;14.40;99.90;;;;;;5073868;28;20530;-75
2022/09/13 00:47:51;;;;;;;4.40;4.10;;;14.40;99.90;;;;;;5074275;28;20837;-74
2022/09/13 00:50:22;;;;;;;5.23;4.90;;;14.40;99.90;;;;;;5074367;28;20826;-75
2022/09/13 00:52:55;;;;;;;4.80;4.40;;;14.20;99.90;;;;;;5073689;28;20928;-75
2022/09/13 00:55:27;;;;;;;4.87;4.47;;;14.10;99.90;;;;;;5074303;28;20468;-75
2022/09/13 00:58:00;;;;;;;4.57;4.17;;;14.10;99.90;;;;;;5074274;28;20472;-75
2022/09/13 01:00:26;;;;;;;4.37;3.97;;;14.00;99.90;;;;;;5074204;28;20831;-75
2022/09/13 01:02:57;;;;;;;4.97;4.63;;;14.00;99.90;;;;;;5073969;28;20491;-75
2022/09/13 01:05:27;;;;;;;4.70;4.30;;;14.00;99.90;;;;;;5073852;28;20480;-75
2022/09/13 01:07:55;;;;;;;5.67;5.13;;;14.00;99.90;;;;;;5073845;28;20425;-75
2022/09/13 01:10:22;;;;;;;3.93;3.63;;;13.90;99.90;;;;;;5073766;28;20499;-75
2022/09/13 01:12:54;;;;;;;5.50;5.10;;;14.00;99.90;;;;;;5073796;28;20441;-75
2022/09/13 01:15:23;;;;;;;5.90;5.40;;;13.90;99.90;;;;;;5073709;28;20472;-75
2022/09/13 01:17:52;;;;;;;6.37;5.80;;;13.80;99.90;;;;;;5073896;28;20519;-75
2022/09/13 01:20:20;;;;;;;5.00;4.50;;;13.80;99.90;;;;;;5073957;28;20502;-75
2022/09/13 01:23:22;;;;;;;6.40;5.37;;;13.80;99.90;;;;;;5073734;28;20445;-75
2022/09/13 01:26:13;;;;;;;6.00;5.50;;;13.80;99.90;;;;;;5069898;28;20884;-75
2022/09/13 01:29:05;;;;;;;5.33;4.90;;;13.80;99.90;;;;;;5073804;28;20518;-74
2022/09/13 01:31:40;;;;;;;5.90;5.40;;;13.70;99.90;;;;;;5073663;28;20417;-74
2022/09/13 01:34:22;;;;;;;5.30;4.90;;;13.70;99.90;;;;;;5073620;28;20428;-74
2022/09/13 01:37:06;;;;;;;7.03;4.77;;;13.70;99.90;;;;;;5073301;28;20488;-74
2022/09/13 01:39:49;;;;;;;6.77;5.40;;;13.60;99.90;;;;;;5073984;28;20432;-75
2022/09/13 01:42:25;;;;;;;5.40;4.90;;;13.70;99.90;;;;;;5073685;28;20429;-74
2022/09/13 01:45:04;;;;;;;5.87;5.40;;;13.70;99.90;;;;;;5073219;28;20437;-75
2022/09/13 01:47:36;;;;;;;5.40;5.00;;;13.70;99.90;;;;;;5073563;28;20429;-75
2022/09/13 01:50:15;;;;;;;6.27;5.77;;;13.70;99.90;;;;;;5073471;28;20433;-75
2022/09/13 01:52:48;;;;;;;8.00;5.40;;;13.60;99.90;;;;;;5073335;28;20421;-75
2022/09/13 01:55:26;;;;;;;5.87;5.47;;;13.60;99.90;;;;;;5073286;28;20464;-75
2022/09/13 01:57:57;;;;;;;7.00;6.20;;;13.50;99.90;;;;;;5072945;28;20504;-75
2022/09/13 02:00:24;;;;;;;6.80;6.00;;;13.60;99.90;;;;;;5073234;28;20429;-75
2022/09/13 02:02:56;;;;;;;6.43;5.83;;;13.50;99.90;;;;;;5072985;28;20449;-75
2022/09/13 02:05:29;;;;;;;6.10;5.50;;;13.50;99.90;;;;;;5072210;28;20521;-75
2022/09/13 02:07:59;;;;;;;5.77;5.30;;;13.50;99.90;;;;;;5073095;28;20436;-75
2022/09/13 02:10:30;;;;;;;5.30;4.90;;;13.50;99.90;;;;;;5073101;28;20491;-75
2022/09/13 02:12:59;;;;;;;6.50;5.43;;;13.40;99.90;;;;;;5073077;28;20852;-75
2022/09/13 02:15:31;;;;;;;4.87;4.57;;;13.40;99.90;;;;;;5072927;28;20559;-75
2022/09/13 02:18:05;;;;;;;6.50;5.80;;;13.50;99.90;;;;;;5072938;28;20515;-76
2022/09/13 02:20:35;;;;;;;5.87;5.33;;;13.40;99.90;;;;;;5072947;28;20528;-75
2022/09/13 02:23:05;;;;;;;6.40;5.37;;;13.50;99.90;;;;;;5072921;28;20577;-76
2022/09/13 02:25:34;;;;;;;6.07;5.60;;;13.50;99.90;;;;;;5072881;28;20460;-75
2022/09/13 02:28:06;;;;;;;5.53;5.03;;;13.50;99.90;;;;;;5072770;28;20791;-75
2022/09/13 02:30:35;;;;;;;5.00;4.60;;;13.40;99.90;;;;;;5073069;28;20436;-75
2022/09/13 02:33:07;;;;;;;6.40;5.80;;;13.40;99.90;;;;;;5073428;28;20483;-75
2022/09/13 02:35:38;;;;;;;5.07;4.60;;;13.50;99.90;;;;;;5073043;28;20469;-76
2022/09/13 02:38:08;;;;;;;4.93;4.50;;;13.50;99.90;;;;;;5072659;28;20834;-75
2022/09/13 02:40:39;;;;;;;5.10;4.70;;;13.50;99.90;;;;;;5072492;28;20448;-76
2022/09/13 02:43:12;;;;;;;5.17;4.67;;;13.50;99.90;;;;;;5072805;28;20520;-76
2022/09/13 02:45:46;;;;;;;5.57;4.27;;;13.50;99.90;;;;;;5072356;28;20472;-76
2022/09/13 02:48:19;;;;;;;6.03;5.53;;;13.50;99.90;;;;;;5072472;28;20451;-75
2022/09/13 02:50:53;;;;;;;6.50;6.00;;;13.50;99.90;;;;;;5072719;28;20433;-75
2022/09/13 02:53:26;;;;;;;5.33;4.93;;;13.50;99.90;;;;;;5072700;28;20471;-75
2022/09/13 02:56:02;;;;;;;5.50;5.00;;;13.50;99.90;;;;;;5072206;28;20469;-77
2022/09/13 02:58:35;;;;;;;5.87;5.37;;;13.50;99.90;;;;;;5072712;28;20468;-76
2022/09/13 03:01:01;;;;;;;5.50;5.10;;;13.50;99.90;;;;;;5072807;28;20432;-76
2022/09/13 03:03:30;;;;;;;5.90;5.30;;;13.50;99.90;;;;;;5072678;28;20447;-76
2022/09/13 03:05:56;;;;;;;5.70;5.30;;;13.40;99.90;;;;;;5072586;28;20468;-76
2022/09/13 03:08:24;;;;;;;6.03;5.10;;;13.50;99.90;;;;;;5072509;28;20953;-76
2022/09/13 03:11:04;;;;;;;6.97;6.27;;;13.60;99.90;;;;;;5072569;28;20857;-76
2022/09/13 03:13:53;;;;;;;6.17;5.43;;;13.60;99.90;;;;;;5072635;28;20490;-76
2022/09/13 03:16:38;;;;;;;6.60;6.07;;;13.60;99.90;;;;;;5073624;28;20464;-76
2022/09/13 03:19:22;;;;;;;5.47;4.97;;;13.50;99.90;;;;;;5076267;28;20421;-76
2022/09/13 03:22:03;;;;;;;6.60;5.50;;;13.50;99.90;;;;;;5076262;28;20440;-76
2022/09/13 03:24:37;;;;;;;5.77;5.17;;;13.50;99.90;;;;;;5076308;28;20482;-76
2022/09/13 03:27:18;;;;;;;6.20;5.63;;;13.50;99.90;;;;;;5075916;28;20551;-76
2022/09/13 03:29:53;;;;;;;6.80;6.17;;;13.40;99.90;;;;;;5075869;28;20421;-76
2022/09/13 03:32:26;;;;;;;5.73;5.23;;;13.40;99.90;;;;;;5075853;28;20429;-76
2022/09/13 03:35:03;;;;;;;8.13;6.50;;;13.20;99.90;;;;;;5075706;28;20429;-76
2022/09/13 03:37:35;;;;;;;6.27;5.43;;;13.40;99.90;;;;;;5075382;28;20469;-74
2022/09/13 03:40:09;;;;;;;5.97;5.47;;;13.60;99.90;;;;;;5075464;28;20978;-74
2022/09/13 03:42:44;;;;;;;5.23;4.93;;;13.30;99.90;;;;;;5075965;28;20495;-74
2022/09/13 03:45:13;;;;;;;6.50;5.90;;;13.30;99.90;;;;;;5075852;28;20616;-74
2022/09/13 03:47:44;;;;;;;7.27;6.57;;;13.30;99.90;;;;;;5075714;28;20429;-76
2022/09/13 03:50:18;;;;;;;6.50;5.27;;;13.30;99.90;;;;;;5075611;28;20433;-74
2022/09/13 03:52:46;;;;;;;6.50;6.00;;;13.30;99.90;;;;;;5075317;28;20421;-76
2022/09/13 03:55:13;;;;;;;5.60;5.10;;;13.30;99.90;;;;;;5075348;28;20863;-76
2022/09/13 03:57:40;;;;;;;6.20;5.70;;;13.40;99.90;;;;;;5075380;28;20507;-76
2022/09/13 04:00:08;;;;;;;6.80;6.20;;;13.40;99.90;;;;;;5075499;28;20444;-76
2022/09/13 04:02:35;;;;;;;6.87;6.17;;;13.40;99.90;;;;;;5075323;28;20519;-76
2022/09/13 04:05:02;;;;;;;5.33;4.90;;;13.50;99.90;;;;;;5075206;28;20444;-76
2022/09/13 04:07:30;;;;;;;6.00;5.50;;;13.60;99.90;;;;;;5075450;28;20441;-76
2022/09/13 04:09:56;;;;;;;6.63;5.70;;;13.60;99.90;;;;;;5075098;28;20877;-76
2022/09/13 04:12:23;;;;;;;6.33;5.83;;;13.60;99.90;;;;;;5075793;28;20498;-76
2022/09/13 04:14:51;;;;;;;5.97;5.47;;;13.50;99.90;;;;;;5075377;28;20452;-76
2022/09/13 04:17:18;;;;;;;5.67;5.20;;;13.60;99.90;;;;;;5074984;28;20476;-76
2022/09/13 04:19:45;;;;;;;6.00;5.50;;;13.70;99.90;;;;;;5074932;28;20449;-75
2022/09/13 04:22:12;;;;;;;7.37;6.67;;;13.70;99.90;;;;;;5074909;28;20444;-76
2022/09/13 04:24:42;;;;;;;5.87;5.47;;;13.70;99.90;;;;;;5074784;28;20444;-76
2022/09/13 04:27:09;;;;;;;6.40;5.80;;;13.70;99.90;;;;;;5073535;28;20445;-76
2022/09/13 04:29:36;;;;;;;6.33;5.83;;;13.70;99.90;;;;;;5074296;28;20576;-76
2022/09/13 04:32:03;;;;;;;6.87;6.37;;;13.70;99.90;;;;;;5074659;28;20444;-76
2022/09/13 04:34:30;;;;;;;6.10;5.60;;;13.70;99.90;;;;;;5074586;28;20453;-76
2022/09/13 04:36:56;;;;;;;7.50;6.90;;;13.70;99.90;;;;;;5074359;28;20472;-74
2022/09/13 04:39:23;;;;;;;7.10;6.13;;;13.80;99.90;;;;;;5074100;28;20445;-75
2022/09/13 04:41:53;;;;;;;6.80;6.20;;;13.80;99.90;;;;;;5074484;28;20476;-75
2022/09/13 04:44:20;;;;;;;7.80;7.20;;;13.80;99.90;;;;;;5075325;28;20502;-75
2022/09/13 04:46:48;;;;;;;6.50;5.90;;;13.70;99.90;;;;;;5073837;28;20487;-75
2022/09/13 04:49:15;;;;;;;7.23;6.53;;;13.80;99.90;;;;;;5074273;28;20437;-75
2022/09/13 04:51:42;;;;;;;7.60;6.90;;;13.70;99.90;;;;;;5074234;28;20951;-75
2022/09/13 04:54:10;;;;;;;12.60;6.93;;;13.70;99.90;;;;;;5074311;28;20563;-75
2022/09/13 04:56:37;;;;;;;7.10;6.50;;;13.70;99.90;;;;;;5074071;28;20469;-74
2022/09/13 04:59:05;;;;;;;7.53;6.93;;;13.70;99.90;;;;;;5074085;28;20481;-74
2022/09/13 05:01:32;;;;;;;8.20;7.40;;;13.70;99.90;;;;;;5074099;28;20440;-74
2022/09/13 05:03:59;;;;;;;8.23;7.47;;;13.70;99.90;;;;;;5073918;28;20452;-74
2022/09/13 05:06:27;;;;;;;7.60;6.90;;;13.80;99.90;;;;;;5073799;28;20884;-75
2022/09/13 05:08:55;;;;;;;11.13;7.23;;;13.80;99.90;;;;;;5074342;28;20449;-74
2022/09/13 05:11:22;;;;;;;7.20;6.60;;;13.80;99.90;;;;;;5073806;28;20445;-75
2022/09/13 05:13:53;;;;;;;8.13;7.33;;;13.80;99.90;;;;;;5073662;28;20445;-75
2022/09/13 05:16:21;;;;;;;6.60;6.00;;;13.90;99.90;;;;;;5073699;28;20840;-75
2022/09/13 05:18:48;;;;;;;7.07;6.50;;;13.80;99.90;;;;;;5073699;28;20526;-75
2022/09/13 05:21:15;;;;;;;7.70;7.00;;;13.80;99.90;;;;;;5073531;28;20449;-75
2022/09/13 05:23:41;;;;;;;8.80;8.07;;;13.90;99.90;;;;;;5073601;28;20452;-75
2022/09/13 05:26:08;;;;;;;7.80;6.70;;;13.90;99.90;;;;;;5073268;28;20530;-76
2022/09/13 05:28:36;;;;;;;8.37;7.50;;;13.90;99.90;;;;;;5073136;28;20452;-75
2022/09/13 05:31:05;;;;;;;8.47;7.63;;;13.90;99.90;;;;;;5073382;28;20475;-75
2022/09/13 05:33:35;;;;;;;8.33;7.63;;;14.00;99.90;;;;;;5073481;28;20476;-75
2022/09/13 05:36:02;;;;;;;7.17;6.53;;;14.00;99.90;;;;;;5073397;28;20487;-75
2022/09/13 05:38:30;;;;;;;7.40;6.70;;;14.00;99.90;;;;;;5073212;28;20567;-75
2022/09/13 05:40:58;;;;;;;7.83;7.20;;;14.00;99.90;;;;;;5073077;28;20449;-75
2022/09/13 05:43:26;;;;;;;10.80;8.03;;;14.00;99.90;;;;;;5073107;28;20441;-75
2022/09/13 05:46:00;;;;;;;8.23;7.20;;;14.10;99.90;;;;;;5072713;28;20527;-75
2022/09/13 05:48:27;;;;;;;11.50;9.47;;;14.10;99.90;;;;;;5073264;28;20458;-75
2022/09/13 05:50:55;;;;;;;8.90;8.00;;;14.10;99.90;;;;;;5073248;28;20452;-75
2022/09/13 05:53:22;;;;;;;8.30;7.67;;;14.10;99.90;;;;;;5073052;28;20518;-75
2022/09/13 05:55:48;;;;;;;9.30;7.80;;;14.10;99.90;;;;;;5073104;28;20835;-75
2022/09/13 05:58:15;;;;;;;9.00;8.20;;;14.10;99.90;;;;;;5073118;28;20477;-75
2022/09/13 06:00:41;;;;;;;10.27;8.30;;;14.10;99.90;;;;;;5073196;28;20449;-75
2022/09/13 06:03:08;;;;;;;11.27;9.40;;;14.10;99.90;;;;;;5073870;28;20869;-76
2022/09/13 06:05:35;;;;;;;20.17;12.33;;;14.10;99.90;;;;;;5072986;28;20866;-76
2022/09/13 06:08:03;;;;;;;11.10;9.90;;;14.10;99.90;;;;;;5072794;28;20445;-76
2022/09/13 06:10:29;;;;;;;18.63;9.80;;;14.00;99.90;;;;;;5072994;28;20452;-76
2022/09/13 06:12:56;;;;;;;11.00;9.90;;;13.90;99.90;;;;;;5072895;28;20448;-76
2022/09/13 06:15:23;;;;;;;14.70;10.87;;;13.90;99.90;;;;;;5072936;28;20544;-76
2022/09/13 06:17:49;;;;;;;12.03;10.80;;;13.90;99.90;;;;;;5072915;28;20480;-76
2022/09/13 06:20:16;;;;;;;13.10;11.80;;;13.80;99.90;;;;;;5072963;28;20486;-76
2022/09/13 06:22:43;;;;;;;15.10;11.37;;;13.80;99.90;;;;;;5072676;28;20463;-76
2022/09/13 06:25:11;;;;;;;14.93;13.17;;;13.80;99.90;;;;;;5072939;28;20514;-76
2022/09/13 06:27:37;;;;;;;20.87;12.30;;;13.80;99.90;;;;;;5073000;28;20441;-76
2022/09/13 06:30:07;;;;;;;18.93;12.47;;;13.70;99.90;;;;;;5072641;28;20452;-76
2022/09/13 06:32:34;;;;;;;12.97;10.87;;;13.70;99.90;;;;;;5072810;28;20448;-76
2022/09/13 06:35:01;;;;;;;16.17;12.57;;;13.50;99.90;;;;;;5072407;28;20451;-76
2022/09/13 06:37:27;;;;;;;18.40;12.90;;;13.70;99.90;;;;;;5072779;28;20452;-76
2022/09/13 06:39:54;;;;;;;12.67;10.60;;;13.60;99.90;;;;;;5072704;28;21016;-76
2022/09/13 06:42:22;;;;;;;16.03;12.00;;;13.60;99.90;;;;;;5072427;28;20970;-76
2022/09/13 06:44:48;;;;;;;14.07;12.20;;;13.70;99.90;;;;;;5072524;28;20445;-76
2022/09/13 06:47:15;;;;;;;18.50;12.50;;;13.60;99.90;;;;;;5072705;28;20420;-76
2022/09/13 06:49:42;;;;;;;15.10;12.70;;;13.70;99.90;;;;;;5072556;28;20490;-76
2022/09/13 06:52:08;;;;;;;16.83;15.03;;;13.70;99.90;;;;;;5075081;28;20451;-76
2022/09/13 06:54:35;;;;;;;14.20;12.77;;;13.70;99.90;;;;;;5076185;28;20806;-76
2022/09/13 06:57:02;;;;;;;15.10;13.50;;;13.70;99.90;;;;;;5076545;28;20488;-76
2022/09/13 06:59:30;;;;;;;19.23;14.40;;;13.80;99.90;;;;;;5076253;28;20896;-76
2022/09/13 07:01:57;;;;;;;14.23;12.63;;;13.80;99.90;;;;;;5076169;28;20803;-76
2022/09/13 07:04:24;;;;;;;19.53;13.83;;;13.80;99.90;;;;;;5076123;28;20880;-76
2022/09/13 07:06:50;;;;;;;17.40;13.97;;;13.90;99.90;;;;;;5075818;28;20464;-76
2022/09/13 07:09:20;;;;;;;17.60;14.67;;;13.90;99.90;;;;;;5076232;28;20822;-76
2022/09/13 07:11:48;;;;;;;15.57;13.73;;;14.00;99.90;;;;;;5076084;28;20457;-76
2022/09/13 07:14:16;;;;;;;17.60;15.80;;;14.10;99.90;;;;;;5076202;28;20445;-76
2022/09/13 07:16:45;;;;;;;14.17;12.73;;;14.20;99.90;;;;;;5075770;28;20468;-76
2022/09/13 07:19:14;;;;;;;14.20;12.70;;;14.20;99.90;;;;;;5075949;28;20571;-76
2022/09/13 07:21:41;;;;;;;14.37;12.93;;;14.30;99.90;;;;;;5075739;28;20521;-76
2022/09/13 07:24:08;;;;;;;15.03;12.73;;;14.30;99.90;;;;;;5075895;28;20931;-76
2022/09/13 07:26:35;;;;;;;14.87;12.60;;;14.40;99.90;;;;;;5075802;28;20460;-76
2022/09/13 07:29:04;;;;;;;15.07;13.47;;;14.40;99.90;;;;;;5075486;28;20452;-76
2022/09/13 07:31:32;;;;;;;14.20;12.87;;;14.40;99.90;;;;;;5075803;28;20518;-76
2022/09/13 07:34:02;;;;;;;17.03;14.83;;;14.40;99.90;;;;;;5076070;28;20849;-76
2022/09/13 07:36:30;;;;;;;18.93;13.80;;;14.50;99.90;;;;;;5075663;28;20468;-76
2022/09/13 07:38:58;;;;;;;12.77;11.40;;;14.40;99.90;;;;;;5075503;28;20480;-76
2022/09/13 07:41:26;;;;;;;13.53;12.00;;;14.50;99.90;;;;;;5075525;28;20456;-76
2022/09/13 07:43:53;;;;;;;14.77;13.27;;;14.60;99.90;;;;;;5075433;28;20448;-76
2022/09/13 07:46:23;;;;;;;13.20;11.90;;;14.60;99.90;;;;;;5096264;22;20901;-75
2022/09/13 07:48:53;;;;;;;14.90;12.20;;;14.60;99.90;;;;;;5075381;28;20425;-74
2022/09/13 07:51:23;;;;;;;16.13;13.00;;;14.60;99.90;;;;;;5075593;28;20582;-74
2022/09/13 07:53:52;;;;;;;14.13;12.70;;;14.70;99.90;;;;;;5075616;28;20445;-74
2022/09/13 07:56:20;;;;;;;14.97;13.40;;;14.70;99.90;;;;;;5075093;28;20469;-75
2022/09/13 07:58:49;;;;;;;14.67;13.13;;;15.10;99.90;;;;;;5074935;28;20516;-74
2022/09/13 08:01:18;;;;;;;14.00;12.70;;;14.80;99.90;;;;;;5075219;28;20456;-73
2022/09/13 08:03:50;;;;;;;14.37;12.87;;;14.90;99.90;;;;;;5074138;28;20479;-75
2022/09/13 08:06:16;;;;;;;16.53;13.30;;;14.90;99.90;;;;;;5075274;28;20476;-73
2022/09/13 08:08:44;;;;;;;14.20;12.70;;;15.00;99.90;;;;;;5074947;28;20451;-74
2022/09/13 08:11:16;;;;;;;13.37;11.77;;;15.10;99.90;;;;;;5074806;28;20449;-75
2022/09/13 08:13:42;;;;;;;12.07;10.87;;;15.10;99.90;;;;;;5074650;28;20453;-74
2022/09/13 08:16:09;;;;;;;12.90;11.60;;;14.90;99.90;;;;;;5074748;28;20839;-75
2022/09/13 08:18:36;;;;;;;15.40;11.80;;;15.50;99.90;;;;;;5074876;28;20480;-74
2022/09/13 08:21:03;;;;;;;20.90;11.07;;;15.30;99.90;;;;;;5075503;28;20476;-75
2022/09/13 08:23:30;;;;;;;13.33;11.83;;;15.20;99.90;;;;;;5074289;28;20488;-73
2022/09/13 08:26:02;;;;;;;12.83;11.37;;;15.30;99.90;;;;;;5073489;28;20469;-74
2022/09/13 08:28:31;;;;;;;13.23;11.83;;;15.20;99.90;;;;;;5074589;28;20942;-74
2022/09/13 08:31:04;;;;;;;13.67;11.33;;;15.20;99.90;;;;;;5074522;28;20931;-74
2022/09/13 08:33:31;;;;;;;12.30;10.03;;;15.50;99.90;;;;;;5075480;28;20440;-74
2022/09/13 08:35:58;;;;;;;29.13;11.40;;;15.50;99.90;;;;;;5074362;28;20476;-74
2022/09/13 08:38:25;;;;;;;15.83;12.20;;;;;;;;;;5074268;28;20460;-74
2022/09/13 08:40:56;;;;;;;13.17;11.80;;;15.60;99.90;;;;;;5075715;28;20444;-75
2022/09/13 08:43:44;;;;;;;12.93;11.00;;;15.60;99.90;;;;;;5074894;28;20404;-74
2022/09/13 08:46:20;;;;;;;12.37;11.10;;;15.70;99.90;;;;;;5075406;28;20513;-74
2022/09/13 08:48:51;;;;;;;15.17;12.80;;;15.80;99.90;;;;;;5076149;28;20947;-74
2022/09/13 08:51:29;;;;;;;13.50;12.07;;;15.80;99.90;;;;;;5076433;28;20871;-74
2022/09/13 08:53:57;;;;;;;19.30;13.27;;;15.80;99.90;;;;;;5076183;28;20449;-74
2022/09/13 08:56:36;;;;;;;13.33;11.93;;;15.80;99.90;;;;;;5075915;28;20808;-73
2022/09/13 08:59:25;;;;;;;14.87;12.70;;;16.20;99.90;;;;;;5077277;28;20831;-75
2022/09/13 09:02:05;;;;;;;18.03;12.63;;;16.10;99.90;;;;;;5079490;28;20459;-74
2022/09/13 09:04:50;;;;;;;12.60;11.23;;;16.60;99.90;;;;;;5082386;28;20429;-75
2022/09/13 09:07:23;;;;;;;16.50;12.50;;;16.40;99.90;;;;;;5084702;28;20477;-74
2022/09/13 09:09:55;;;;;;;19.40;17.13;;;16.50;99.90;;;;;;5086500;28;20440;-74
2022/09/13 09:12:29;;;;;;;13.20;11.53;;;16.50;99.90;;;;;;5086127;28;20467;-74
2022/09/13 09:15:03;;;;;;;14.03;12.20;;;16.50;99.90;;;;;;5083170;28;20455;-74
2022/09/13 09:17:35;;;;;;;13.13;11.83;;;16.60;99.90;;;;;;5084577;28;20475;-75
2022/09/13 09:20:09;;;;;;;13.17;10.30;;;16.70;99.90;;;;;;5085436;28;20469;-74
2022/09/13 09:22:36;;;;;;;13.13;10.93;;;16.70;99.90;;;;;;5074222;28;20448;-75
2022/09/13 09:25:04;;;;;;;12.87;10.33;;;16.90;99.90;;;;;;5075502;28;20453;-74
2022/09/13 09:27:32;;;;;;;11.60;10.40;;;16.80;99.90;;;;;;5073754;28;20457;-75
2022/09/13 09:30:01;;;;;;;11.90;10.70;;;16.90;99.90;;;;;;5074109;28;20449;-74
2022/09/13 09:33:06;;;;;;;14.83;11.50;;;17.00;99.90;;;;;;5073331;28;20459;-73
2022/09/13 09:35:51;;;;;;;12.70;10.77;;;16.80;99.90;;;;;;5073707;28;20523;-74
2022/09/13 09:38:41;;;;;;;12.30;11.10;;;17.20;99.90;;;;;;5073501;28;20441;-73
2022/09/13 09:41:16;;;;;;;12.47;10.60;;;17.10;99.90;;;;;;5073496;28;20433;-73
2022/09/13 09:43:51;;;;;;;11.00;9.87;;;17.30;99.90;;;;;;5073420;28;20428;-74
2022/09/13 09:46:24;;;;;;;10.40;9.40;;;17.40;99.90;;;;;;5072963;28;20484;-74
2022/09/13 09:48:55;;;;;;;10.10;9.20;;;17.60;99.90;;;;;;5073444;28;20441;-73
2022/09/13 09:51:26;;;;;;;10.60;9.23;;;17.80;99.90;;;;;;5073640;28;20437;-73
2022/09/13 09:54:00;;;;;;;11.50;9.97;;;18.30;99.90;;;;;;5073616;28;20448;-74
2022/09/13 09:56:31;;;;;;;12.77;9.30;;;18.10;99.90;;;;;;5074624;28;20833;-76
2022/09/13 09:58:58;;;;;;;10.17;9.17;;;18.20;99.90;;;;;;5074287;28;20473;-75
2022/09/13 10:01:28;;;;;;;11.70;8.83;;;18.40;99.90;;;;;;5074480;28;20437;-74
2022/09/13 10:04:04;;;;;;;9.90;9.00;;;18.40;99.90;;;;;;5075130;28;20454;-75
2022/09/13 10:06:32;;;;;;;12.03;9.53;;;18.70;99.90;;;;;;5076157;28;20468;-74
2022/09/13 10:09:02;;;;;;;10.27;8.70;;;18.70;99.90;;;;;;5076262;28;20452;-74
2022/09/13 10:11:43;;;;;;;10.53;9.37;;;18.70;99.90;;;;;;5076367;28;20451;-73
2022/09/13 10:14:28;;;;;;;16.23;13.23;;;18.70;99.90;;;;;;5078803;28;20436;-74
2022/09/13 10:17:05;;;;;;;11.03;10.00;;;18.70;99.90;;;;;;5080862;28;20456;-74
2022/09/13 10:19:33;;;;;;;11.00;8.83;;;18.80;99.90;;;;;;5084924;28;20491;-74
2022/09/13 10:22:02;;;;;;;9.90;8.73;;;18.90;99.90;;;;;;5078526;28;21030;-74
2022/09/13 10:24:29;;;;;;;10.33;8.87;;;18.90;99.90;;;;;;5076216;28;20476;-74
2022/09/13 10:26:57;;;;;;;11.30;9.43;;;19.00;99.90;;;;;;5080899;28;20495;-74
2022/09/13 10:29:26;;;;;;;8.43;7.53;;;19.00;99.90;;;;;;5078741;28;20445;-73
2022/09/13 10:31:54;;;;;;;10.63;8.27;;;19.10;99.90;;;;;;5079060;28;20501;-74
2022/09/13 10:34:28;;;;;;;10.17;8.97;;;19.10;99.90;;;;;;5077871;28;20464;-74
2022/09/13 10:36:58;;;;;;;14.30;11.00;;;19.20;99.90;;;;;;5077219;28;20521;-73
2022/09/13 10:39:27;;;;;;;12.23;9.50;;;19.20;99.90;;;;;;5078164;28;20518;-73
2022/09/13 10:41:57;;;;;;;10.53;8.87;;;18.90;99.90;;;;;;5076745;28;20970;-75
2022/09/13 10:44:31;;;;;;;14.57;10.20;;;19.00;99.90;;;;;;5076914;28;20448;-74
2022/09/13 10:47:01;;;;;;;10.67;9.37;;;19.10;99.90;;;;;;5076741;28;20480;-74
2022/09/13 10:49:45;;;;;;;9.40;8.50;;;19.20;99.90;;;;;;5076480;28;20425;-74
2022/09/13 10:52:31;;;;;;;10.70;9.60;;;19.30;99.90;;;;;;5076494;28;20428;-75
2022/09/13 10:55:25;;;;;;;12.90;9.90;;;19.30;99.90;;;;;;5076769;28;20428;-73
2022/09/13 10:57:54;;;;;;;10.73;9.47;;;19.40;99.90;;;;;;5076488;28;20429;-75
2022/09/13 11:00:25;;;;;;;10.53;9.43;;;19.50;99.90;;;;;;5076409;28;20480;-75
2022/09/13 11:03:20;;;;;;;10.97;9.63;;;19.50;99.90;;;;;;5076403;28;20429;-75
2022/09/13 11:05:56;;;;;;;9.37;8.37;;;19.40;99.90;;;;;;5076202;28;20469;-75
2022/09/13 11:08:37;;;;;;;9.70;8.70;;;19.60;99.90;;;;;;5076238;28;20424;-74
2022/09/13 11:11:15;;;;;;;10.20;8.57;;;19.30;99.90;;;;;;5075929;28;20931;-75
2022/09/13 11:13:55;;;;;;;9.43;8.50;;;19.20;99.90;;;;;;5075651;28;20956;-75
2022/09/13 11:16:32;;;;;;;10.77;7.60;;;19.20;99.90;;;;;;5075929;28;20472;-75
2022/09/13 11:19:23;;;;;;;9.50;8.50;;;19.10;99.90;;;;;;5077885;28;20802;-75
2022/09/13 11:22:09;;;;;;;10.73;8.53;;;19.10;99.90;;;;;;5076604;28;20437;-76
2022/09/13 11:24:51;;;;;;;14.77;7.73;;;19.10;99.90;;;;;;5076253;28;20928;-75
2022/09/13 11:27:24;;;;;;;10.10;9.03;;;19.00;99.90;;;;;;5076694;28;20834;-75
2022/09/13 11:30:10;;;;;;;10.80;9.20;;;18.90;99.90;;;;;;5076110;28;20429;-75
2022/09/13 11:32:49;;;;;;;13.90;9.57;;;18.70;99.90;;;;;;5075991;28;20480;-74
2022/09/13 11:35:36;;;;;;;12.67;10.20;;;18.40;99.90;;;;;;5075901;28;20848;-74
2022/09/13 11:38:14;;;;;;;13.63;12.20;;;17.80;99.90;;;;;;5074892;28;20456;-74
2022/09/13 11:40:56;;;;;;;11.27;10.07;;;17.70;99.90;;;;;;5075655;28;20563;-75
2022/09/13 11:43:47;;;;;;;13.40;11.60;;;18.00;99.90;;;;;;5075791;28;20772;-75
2022/09/13 11:46:24;;;;;;;18.10;11.93;;;18.00;99.90;;;;;;5076320;28;20479;-75
2022/09/13 11:49:04;;;;;;;15.27;12.07;;;18.00;99.90;;;;;;5076376;28;20805;-74
2022/09/13 11:51:42;;;;;;;12.20;11.00;;;17.90;99.90;;;;;;5075823;28;20437;-75
2022/09/13 11:54:31;;;;;;;14.17;12.47;;;17.90;99.90;;;;;;5075763;28;20929;-75
2022/09/13 11:57:04;;;;;;;12.03;10.73;;;18.00;99.90;;;;;;5075127;28;20480;-76
2022/09/13 11:59:38;;;;;;;16.20;12.87;;;18.10;99.90;;;;;;5075471;28;20473;-75
2022/09/13 12:02:20;;;;;;;16.63;10.77;;;18.10;99.90;;;;;;5075506;28;20798;-75
2022/09/13 12:04:52;;;;;;;14.67;12.50;;;18.10;99.90;;;;;;5076089;28;20459;-76
2022/09/13 12:07:29;;;;;;;12.83;11.63;;;18.10;99.90;;;;;;5075852;28;20469;-75
2022/09/13 12:10:04;;;;;;;20.77;11.17;;;18.10;99.90;;;;;;5075771;28;20520;-75
2022/09/13 12:12:35;;;;;;;13.70;11.03;;;18.10;99.90;;;;;;5075747;28;20433;-75
2022/09/13 12:15:07;;;;;;;12.10;10.80;;;18.20;99.90;;;;;;5075457;28;20477;-76
2022/09/13 12:17:38;;;;;;;11.73;10.50;;;18.20;99.90;;;;;;5075395;28;20476;-74
2022/09/13 12:20:13;;;;;;;12.17;10.10;;;18.20;99.90;;;;;;5075728;28;20489;-75
2022/09/13 12:22:42;;;;;;;11.60;9.43;;;18.20;99.90;;;;;;5075309;28;20455;-75
2022/09/13 12:25:21;;;;;;;11.37;9.97;;;18.40;99.90;;;;;;5075638;28;20502;-76
2022/09/13 12:27:56;;;;;;;11.50;10.27;;;18.40;99.90;;;;;;5075412;28;20444;-75
2022/09/13 12:30:25;;;;;;;14.97;10.07;;;18.50;99.90;;;;;;5075275;28;20425;-74
2022/09/13 12:32:52;;;;;;;13.77;10.17;;;18.60;99.90;;;;;;5075389;28;20790;-75
2022/09/13 12:35:26;;;;;;;11.77;10.57;;;18.60;99.90;;;;;;5075645;28;20429;-75
2022/09/13 12:38:12;;;;;;;10.23;9.13;;;18.60;99.90;;;;;;5074302;28;20904;-75
2022/09/13 12:41:03;;;;;;;12.77;10.70;;;18.60;99.90;;;;;;5074642;28;20476;-74
2022/09/13 12:44:01;;;;;;;12.13;9.37;;;18.50;99.90;;;;;;5075046;28;20436;-75
2022/09/13 12:47:01;;;;;;;11.33;10.33;;;18.50;99.90;;;;;;5069477;28;20564;-75
2022/09/13 12:49:42;;;;;;;12.10;10.27;;;18.50;99.90;;;;;;5051395;28;20895;-75
2022/09/13 12:52:30;;;;;;;12.30;9.60;;;18.50;99.90;;;;;;5074373;28;20532;-75
2022/09/13 12:55:34;;;;;;;11.97;10.77;;;18.60;99.90;;;;;;5074354;28;20440;-75
2022/09/13 12:58:17;;;;;;;10.37;9.37;;;18.50;99.90;;;;;;5074329;28;20483;-74
2022/09/13 13:01:00;;;;;;;17.93;11.20;;;18.60;99.90;;;;;;5073803;28;20464;-74
2022/09/13 13:03:31;;;;;;;12.73;10.97;;;18.60;99.90;;;;;;5074374;28;20433;-74